createdAt,value
2019-02-17T00:01:21.861Z,19.63
2019-02-17T00:03:51.307Z,19.50
2019-02-17T00:06:20.840Z,18.67
2019-02-17T00:08:50.342Z,18.27
2019-02-17T00:11:19.893Z,18.20
2019-02-17T00:13:49.363Z,17.97
2019-02-17T00:16:18.940Z,18.03
2019-02-17T00:18:48.531Z,17.70
2019-02-17T00:21:17.904Z,17.97
2019-02-17T00:23:47.446Z,17.50
2019-02-17T00:26:16.856Z,17.90
2019-02-17T00:28:46.416Z,17.83
2019-02-17T00:31:18.146Z,17.20
2019-02-17T00:33:47.477Z,18.70
2019-02-17T00:36:17.814Z,18.03
2019-02-17T00:38:47.303Z,18.50
2019-02-17T00:41:16.746Z,18.20
2019-02-17T00:43:46.309Z,17.43
2019-02-17T00:46:15.758Z,18.30
2019-02-17T00:48:45.254Z,20.00
2019-02-17T00:51:14.943Z,21.60
2019-02-17T00:53:44.360Z,21.13
2019-02-17T00:56:13.784Z,20.37
2019-02-17T00:58:44.157Z,19.27
2019-02-17T01:01:13.608Z,19.60
2019-02-17T01:03:53.915Z,19.00
2019-02-17T01:06:23.415Z,17.77
2019-02-17T01:08:53.083Z,17.30
2019-02-17T01:11:22.367Z,18.73
2019-02-17T01:13:51.851Z,18.27
2019-02-17T01:16:21.444Z,18.73
2019-02-17T01:18:50.930Z,19.30
2019-02-17T01:21:20.420Z,19.13
2019-02-17T01:23:49.868Z,18.33
2019-02-17T01:26:19.362Z,18.83
2019-02-17T01:28:49.655Z,19.03
2019-02-17T01:31:19.240Z,19.10
2019-02-17T01:33:51.031Z,18.80
2019-02-17T01:36:21.452Z,19.13
2019-02-17T01:38:50.970Z,18.70
2019-02-17T01:41:22.685Z,18.43
2019-02-17T01:43:52.021Z,20.00
2019-02-17T01:46:21.605Z,18.07
2019-02-17T01:48:51.929Z,18.60
2019-02-17T01:51:21.410Z,18.77
2019-02-17T01:53:50.866Z,18.33
2019-02-17T01:56:21.449Z,18.13
2019-02-17T01:58:50.726Z,18.57
2019-02-17T02:01:20.228Z,18.20
2019-02-17T02:03:49.820Z,18.20
2019-02-17T02:06:21.869Z,19.20
2019-02-17T02:08:51.162Z,20.00
2019-02-17T02:11:21.542Z,18.80
2019-02-17T02:13:51.067Z,19.03
2019-02-17T02:16:20.546Z,18.40
2019-02-17T02:18:52.245Z,17.83
2019-02-17T02:21:21.573Z,18.93
2019-02-17T02:23:51.896Z,17.43
2019-02-17T02:26:22.918Z,17.50
2019-02-17T02:28:53.364Z,18.03
2019-02-17T02:31:25.698Z,18.63
2019-02-17T02:33:56.147Z,18.33
2019-02-17T02:36:25.442Z,17.60
2019-02-17T02:38:57.166Z,17.40
2019-02-17T02:41:49.146Z,18.80
2019-02-17T02:44:23.638Z,17.73
2019-02-17T02:46:53.164Z,17.90
2019-02-17T02:49:22.699Z,16.97
2019-02-17T02:51:54.334Z,17.33
2019-02-17T02:54:23.724Z,17.07
2019-02-17T02:56:53.185Z,17.10
2019-02-17T02:59:22.678Z,17.47
2019-02-17T03:01:53.034Z,16.93
2019-02-17T03:04:22.825Z,16.67
2019-02-17T03:06:55.365Z,17.07
2019-02-17T03:09:26.704Z,16.83
2019-02-17T03:11:55.973Z,16.97
2019-02-17T03:14:25.440Z,16.67
2019-02-17T03:16:55.757Z,15.97
2019-02-17T03:19:25.416Z,16.33
2019-02-17T03:21:55.688Z,15.57
2019-02-17T03:24:25.170Z,16.63
2019-02-17T03:26:56.715Z,16.60
2019-02-17T03:29:26.308Z,15.77
2019-02-17T03:31:55.660Z,16.20
2019-02-17T03:34:25.224Z,16.33
2019-02-17T03:36:55.008Z,16.73
2019-02-17T03:39:25.960Z,16.17
2019-02-17T03:41:57.537Z,16.30
2019-02-17T03:44:26.886Z,16.90
2019-02-17T03:46:56.401Z,16.47
2019-02-17T03:49:26.768Z,16.47
2019-02-17T03:51:56.231Z,16.47
2019-02-17T03:54:26.906Z,15.73
2019-02-17T03:56:57.615Z,15.93
2019-02-17T03:59:26.849Z,16.67
2019-02-17T04:01:56.420Z,15.17
2019-02-17T04:04:25.840Z,15.33
2019-02-17T04:06:55.372Z,16.33
2019-02-17T04:09:24.875Z,16.00
2019-02-17T04:11:55.129Z,15.63
2019-02-17T04:14:24.654Z,14.93
2019-02-17T04:16:54.225Z,15.90
2019-02-17T04:19:23.671Z,16.50
2019-02-17T04:21:53.237Z,15.93
2019-02-17T04:24:27.675Z,15.23
2019-02-17T04:26:57.106Z,15.97
2019-02-17T04:29:26.593Z,15.80
2019-02-17T04:31:56.129Z,15.23
2019-02-17T04:34:26.444Z,15.97
2019-02-17T04:36:57.189Z,15.20
2019-02-17T04:39:26.436Z,15.90
2019-02-17T04:41:55.775Z,15.20
2019-02-17T04:44:25.281Z,15.73
2019-02-17T04:46:55.963Z,16.03
2019-02-17T04:49:25.510Z,15.80
2019-02-17T04:51:55.838Z,15.00
2019-02-17T04:54:25.373Z,14.77
2019-02-17T04:56:54.880Z,14.77
2019-02-17T04:59:25.274Z,14.73
2019-02-17T05:01:54.706Z,14.57
2019-02-17T05:04:25.598Z,15.00
2019-02-17T05:06:54.917Z,15.67
2019-02-17T05:09:24.453Z,14.87
2019-02-17T05:11:53.933Z,14.87
2019-02-17T05:14:23.435Z,15.47
2019-02-17T05:16:53.837Z,14.50
2019-02-17T05:19:24.082Z,15.70
2019-02-17T05:21:54.430Z,16.27
2019-02-17T05:24:24.807Z,16.23
2019-02-17T05:26:54.221Z,16.70
2019-02-17T05:29:25.381Z,16.10
2019-02-17T05:31:56.562Z,16.20
2019-02-17T05:34:33.834Z,16.17
2019-02-17T05:37:03.449Z,16.57
2019-02-17T05:39:33.770Z,15.83
2019-02-17T05:42:03.861Z,16.20
2019-02-17T05:44:33.136Z,16.63
2019-02-17T05:47:02.668Z,16.53
2019-02-17T05:49:32.921Z,16.37
2019-02-17T05:52:03.276Z,16.00
2019-02-17T05:54:32.816Z,16.57
2019-02-17T05:57:03.865Z,17.00
2019-02-17T05:59:33.534Z,16.90
2019-02-17T06:02:04.040Z,16.67
2019-02-17T06:04:35.298Z,16.53
2019-02-17T06:07:06.460Z,16.93
2019-02-17T06:09:36.175Z,16.70
2019-02-17T06:12:05.432Z,16.83
2019-02-17T06:14:39.209Z,16.37
2019-02-17T06:17:14.268Z,16.00
2019-02-17T06:19:43.806Z,17.47
2019-02-17T06:22:13.324Z,15.77
2019-02-17T06:24:42.797Z,16.43
2019-02-17T06:27:13.118Z,16.03
2019-02-17T06:29:42.691Z,17.07
2019-02-17T06:32:12.120Z,16.27
2019-02-17T06:34:42.446Z,16.30
2019-02-17T06:37:12.022Z,16.13
2019-02-17T06:39:42.291Z,15.20
2019-02-17T06:42:11.416Z,15.83
2019-02-17T06:44:40.932Z,16.07
2019-02-17T06:47:16.637Z,15.80
2019-02-17T06:49:46.058Z,15.53
2019-02-17T06:52:15.577Z,15.27
2019-02-17T06:54:47.492Z,15.83
2019-02-17T06:57:20.226Z,15.90
2019-02-17T06:59:51.060Z,15.37
2019-02-17T07:02:21.389Z,15.90
2019-02-17T07:05:21.785Z,16.10
2019-02-17T07:07:51.210Z,16.03
2019-02-17T07:10:20.601Z,15.93
2019-02-17T07:12:55.844Z,16.13
2019-02-17T07:15:25.442Z,16.83
2019-02-17T07:17:55.666Z,16.37
2019-02-17T07:20:25.171Z,17.30
2019-02-17T07:22:55.544Z,21.50
2019-02-17T07:25:30.081Z,21.20
2019-02-17T07:27:56.128Z,17.80
2019-02-17T07:30:26.100Z,17.30
2019-02-17T07:32:56.397Z,16.20
2019-02-17T07:35:25.903Z,17.20
2019-02-17T07:37:55.449Z,16.03
2019-02-17T07:40:25.721Z,16.70
2019-02-17T07:42:54.882Z,16.47
2019-02-17T07:45:24.374Z,17.77
2019-02-17T07:47:53.941Z,17.03
2019-02-17T07:50:23.382Z,17.03
2019-02-17T07:52:52.890Z,16.97
2019-02-17T07:55:22.354Z,17.33
2019-02-17T07:57:51.861Z,17.57
2019-02-17T08:00:21.393Z,18.37
2019-02-17T08:06:30.405Z,17.27
2019-02-17T08:08:59.951Z,17.13
2019-02-17T08:11:29.457Z,16.70
2019-02-17T08:13:58.990Z,17.40
2019-02-17T08:16:28.474Z,17.07
2019-02-17T08:19:00.031Z,16.67
2019-02-17T08:21:29.528Z,16.33
2019-02-17T08:23:59.829Z,16.80
2019-02-17T08:26:29.335Z,17.63
2019-02-17T08:28:59.711Z,17.10
2019-02-17T08:31:29.251Z,17.03
2019-02-17T08:33:58.805Z,16.37
2019-02-17T08:36:29.926Z,16.67
2019-02-17T08:39:00.224Z,17.07
2019-02-17T08:41:29.672Z,17.60
2019-02-17T08:44:00.898Z,17.23
2019-02-17T08:46:31.682Z,17.70
2019-02-17T08:49:01.071Z,16.47
2019-02-17T08:51:30.641Z,16.37
2019-02-17T08:54:00.041Z,17.33
2019-02-17T08:56:29.625Z,17.67
2019-02-17T08:58:59.918Z,16.87
2019-02-17T09:01:29.385Z,17.50
2019-02-17T09:03:58.913Z,17.20
2019-02-17T09:06:28.444Z,16.33
2019-02-17T09:08:58.005Z,17.07
2019-02-17T09:11:27.738Z,17.13
2019-02-17T09:13:57.461Z,17.57
2019-02-17T09:16:27.762Z,16.87
2019-02-17T09:18:57.246Z,16.67
2019-02-17T09:21:26.911Z,15.90
2019-02-17T09:23:58.341Z,16.67
2019-02-17T09:26:29.640Z,17.77
2019-02-17T09:28:59.864Z,17.07
2019-02-17T09:31:30.558Z,17.67
2019-02-17T09:34:00.059Z,17.13
2019-02-17T09:36:29.669Z,16.43
2019-02-17T09:39:04.196Z,17.07
2019-02-17T09:41:33.892Z,16.23
2019-02-17T09:44:03.828Z,16.10
2019-02-17T09:46:33.386Z,16.57
2019-02-17T09:49:04.262Z,15.93
2019-02-17T09:51:33.607Z,15.67
2019-02-17T09:54:03.040Z,15.77
2019-02-17T09:56:32.905Z,16.03
2019-02-17T09:59:02.517Z,16.03
2019-02-17T10:01:32.715Z,16.30
2019-02-17T10:04:02.249Z,16.07
2019-02-17T10:06:32.627Z,17.33
2019-02-17T10:09:02.075Z,15.40
2019-02-17T10:11:34.717Z,16.07
2019-02-17T10:14:04.117Z,16.33
2019-02-17T10:16:33.510Z,15.73
2019-02-17T10:19:03.007Z,15.63
2019-02-17T10:21:35.277Z,16.10
2019-02-17T10:24:05.710Z,16.03
2019-02-17T10:26:36.042Z,15.90
2019-02-17T10:29:06.732Z,16.03
2019-02-17T10:31:36.685Z,16.03
2019-02-17T10:34:06.355Z,15.83
2019-02-17T10:36:35.695Z,16.17
2019-02-17T10:39:06.753Z,15.50
2019-02-17T10:41:37.209Z,16.43
2019-02-17T10:44:07.457Z,15.77
2019-02-17T10:46:37.835Z,15.37
2019-02-17T10:49:07.288Z,16.77
2019-02-17T10:51:36.891Z,16.40
2019-02-17T10:54:06.374Z,15.77
2019-02-17T10:56:35.814Z,16.90
2019-02-17T10:59:06.575Z,16.48
2019-02-17T11:01:36.136Z,17.10
2019-02-17T11:04:09.826Z,16.20
2019-02-17T11:06:39.186Z,16.07
2019-02-17T11:09:23.881Z,16.10
2019-02-17T11:11:54.462Z,16.83
2019-02-17T11:14:24.056Z,16.30
2019-02-17T11:16:53.604Z,16.03
2019-02-17T11:19:23.887Z,15.50
2019-02-17T11:21:53.480Z,15.37
2019-02-17T11:24:25.052Z,15.33
2019-02-17T11:26:54.520Z,15.23
2019-02-17T11:29:23.966Z,15.07
2019-02-17T11:31:53.539Z,14.97
2019-02-17T11:34:22.976Z,15.10
2019-02-17T11:36:53.318Z,15.23
2019-02-17T11:39:22.904Z,13.97
2019-02-17T11:41:52.310Z,14.27
2019-02-17T11:44:21.860Z,13.43
2019-02-17T11:47:01.306Z,14.03
2019-02-17T11:49:31.595Z,14.37
2019-02-17T11:52:01.483Z,12.93
2019-02-17T11:54:30.913Z,13.13
2019-02-17T11:57:03.964Z,13.53
2019-02-17T11:59:36.705Z,12.50
2019-02-17T12:02:07.271Z,13.07
2019-02-17T12:04:38.770Z,12.93
2019-02-17T12:07:08.288Z,13.17
2019-02-17T12:09:40.673Z,13.30
2019-02-17T12:12:10.309Z,13.00
2019-02-17T12:14:40.996Z,12.40
2019-02-17T12:17:12.397Z,13.70
2019-02-17T12:19:41.949Z,13.03
2019-02-17T12:22:21.398Z,13.53
2019-02-17T12:24:56.911Z,13.00
2019-02-17T12:27:59.495Z,13.30
2019-02-17T12:30:36.586Z,12.63
2019-02-17T12:33:06.035Z,12.97
2019-02-17T12:35:36.900Z,13.20
2019-02-17T12:38:06.241Z,13.60
2019-02-17T12:40:36.760Z,12.47
2019-02-17T12:43:06.113Z,12.67
2019-02-17T12:45:35.682Z,12.57
2019-02-17T12:48:05.539Z,13.70
2019-02-17T12:50:37.245Z,13.00
2019-02-17T12:53:06.539Z,12.57
2019-02-17T12:55:36.130Z,12.63
2019-02-17T12:58:05.685Z,13.17
2019-02-17T13:00:35.182Z,12.87
2019-02-17T13:03:06.740Z,12.70
2019-02-17T13:05:36.455Z,12.23
2019-02-17T13:08:08.852Z,12.40
2019-02-17T13:10:40.421Z,12.80
2019-02-17T13:13:09.969Z,11.83
2019-02-17T13:15:39.500Z,12.40
2019-02-17T13:18:11.275Z,12.87
2019-02-17T13:20:41.937Z,12.00
2019-02-17T13:23:13.380Z,11.63
2019-02-17T13:25:47.110Z,13.30
2019-02-17T13:28:57.074Z,12.67
2019-02-17T13:31:53.358Z,12.53
2019-02-17T13:34:22.666Z,11.93
2019-02-17T13:36:52.415Z,11.87
2019-02-17T13:39:22.147Z,12.27
2019-02-17T13:41:51.526Z,11.50
2019-02-17T13:44:21.026Z,11.53
2019-02-17T13:46:57.171Z,11.43
2019-02-17T13:49:26.692Z,10.43
2019-02-17T13:51:58.255Z,11.13
2019-02-17T13:54:29.766Z,10.80
2019-02-17T13:57:00.082Z,11.17
2019-02-17T13:59:29.636Z,10.60
2019-02-17T14:01:59.090Z,10.50
2019-02-17T14:04:29.469Z,10.97
2019-02-17T14:07:04.670Z,10.43
2019-02-17T14:09:34.950Z,11.40
2019-02-17T14:12:06.281Z,10.13
2019-02-17T14:14:38.810Z,10.33
2019-02-17T14:17:08.499Z,9.80
2019-02-17T14:19:39.177Z,9.57
2019-02-17T14:22:08.776Z,9.60
2019-02-17T14:24:40.244Z,9.47
2019-02-17T14:27:09.837Z,9.13
2019-02-17T14:29:39.227Z,9.57
2019-02-17T14:32:09.727Z,9.57
2019-02-17T14:34:39.321Z,9.27
2019-02-17T14:37:08.617Z,9.50
2019-02-17T14:39:39.027Z,9.10
2019-02-17T14:42:10.401Z,8.97
2019-02-17T14:44:40.341Z,8.90
2019-02-17T14:47:10.127Z,9.13
2019-02-17T14:49:39.799Z,9.00
2019-02-17T14:52:09.313Z,8.67
2019-02-17T14:54:38.813Z,9.07
2019-02-17T14:57:08.334Z,8.70
2019-02-17T14:59:37.831Z,8.83
2019-02-17T15:02:07.336Z,9.20
2019-02-17T15:04:36.820Z,9.23
2019-02-17T15:07:06.343Z,9.63
2019-02-17T15:09:36.796Z,9.03
2019-02-17T15:12:06.160Z,9.80
2019-02-17T15:14:35.618Z,8.97
2019-02-17T15:17:05.172Z,8.67
2019-02-17T15:19:40.419Z,9.10
2019-02-17T15:22:09.852Z,9.00
2019-02-17T15:24:39.496Z,9.37
2019-02-17T15:27:09.694Z,9.50
2019-02-17T15:29:39.189Z,9.63
2019-02-17T15:32:08.802Z,10.20
2019-02-17T15:34:38.302Z,8.57
2019-02-17T15:37:08.710Z,8.00
2019-02-17T15:39:38.088Z,8.23
2019-02-17T15:42:08.396Z,8.30
2019-02-17T15:44:39.942Z,9.17
2019-02-17T15:47:11.532Z,8.53
2019-02-17T15:49:41.798Z,8.13
2019-02-17T15:52:11.302Z,8.40
2019-02-17T15:54:41.712Z,8.30
2019-02-17T15:57:11.102Z,8.43
2019-02-17T15:59:40.674Z,8.30
2019-02-17T16:02:10.233Z,8.03
2019-02-17T16:04:40.508Z,8.07
2019-02-17T16:07:12.016Z,8.73
2019-02-17T16:09:42.544Z,8.67
2019-02-17T16:12:11.966Z,8.77
2019-02-17T16:14:41.941Z,8.33
2019-02-17T16:17:21.379Z,8.23
2019-02-17T16:19:50.678Z,8.57
2019-02-17T16:22:23.090Z,8.47
2019-02-17T16:24:52.652Z,8.70
2019-02-17T16:27:24.075Z,8.23
2019-02-17T16:29:55.295Z,8.83
2019-02-17T16:32:25.655Z,8.53
2019-02-17T16:34:55.117Z,8.53
2019-02-17T16:37:25.841Z,9.67
2019-02-17T16:39:55.338Z,9.90
2019-02-17T16:42:25.923Z,9.60
2019-02-17T16:44:58.001Z,9.83
2019-02-17T16:47:28.237Z,9.20
2019-02-17T16:49:59.079Z,9.30
2019-02-17T16:52:34.468Z,8.93
2019-02-17T16:55:11.502Z,9.10
2019-02-17T16:58:37.148Z,9.00
2019-02-17T17:04:11.318Z,8.93
2019-02-17T17:06:50.259Z,8.77
2019-02-17T17:09:31.713Z,9.17
2019-02-17T17:12:03.149Z,9.17
2019-02-17T17:14:41.250Z,9.07
2019-02-17T17:17:20.523Z,9.10
2019-02-17T17:20:18.108Z,8.07
2019-02-17T17:22:53.704Z,8.33
2019-02-17T17:25:25.787Z,8.53
2019-02-17T17:27:55.607Z,7.93
2019-02-17T17:30:26.410Z,7.97
2019-02-17T17:32:56.896Z,7.63
2019-02-17T17:35:33.600Z,7.80
2019-02-17T17:42:28.832Z,7.70
2019-02-17T17:44:38.432Z,7.77
2019-02-17T17:47:32.607Z,7.13
2019-02-17T17:50:15.070Z,7.37
2019-02-17T17:56:44.977Z,6.87
2019-02-17T18:09:07.054Z,9.57
2019-02-17T18:22:01.508Z,10.93
2019-02-17T18:24:37.460Z,9.83
2019-02-17T18:27:07.033Z,9.23
2019-02-17T18:29:37.790Z,8.47
2019-02-17T18:32:08.308Z,8.47
2019-02-17T18:34:38.731Z,9.10
2019-02-17T18:37:14.607Z,8.87
2019-02-17T18:39:49.793Z,8.27
2019-02-17T18:42:19.116Z,9.10
2019-02-17T18:44:51.609Z,8.70
2019-02-17T18:47:24.700Z,10.63
2019-02-17T18:50:00.296Z,10.83
2019-02-17T18:52:29.825Z,12.73
2019-02-17T18:54:59.343Z,13.23
2019-02-17T18:57:29.311Z,15.33
2019-02-17T19:00:03.777Z,15.63
2019-02-17T19:02:41.014Z,14.63
2019-02-17T19:05:11.523Z,13.90
2019-02-17T19:07:44.099Z,13.87
2019-02-17T19:10:14.680Z,12.80
2019-02-17T19:13:12.545Z,14.20
2019-02-17T19:15:46.583Z,12.77
2019-02-17T19:21:48.055Z,13.77
2019-02-17T19:27:54.052Z,11.90
2019-02-17T19:30:24.072Z,10.87
2019-02-17T19:32:59.104Z,10.77
2019-02-17T19:35:30.182Z,10.60
2019-02-17T19:38:03.874Z,10.07
2019-02-17T19:40:37.294Z,10.00
2019-02-17T19:43:06.737Z,10.03
2019-02-17T19:45:37.413Z,10.23
2019-02-17T19:48:06.903Z,10.47
2019-02-17T19:50:36.910Z,12.07
2019-02-17T19:53:06.473Z,13.30
2019-02-17T19:55:35.909Z,17.57
2019-02-17T19:58:06.182Z,19.27
2019-02-17T20:00:37.834Z,18.47
2019-02-17T20:03:36.533Z,15.00
2019-02-17T20:06:09.328Z,14.10
2019-02-17T20:08:46.848Z,13.00
2019-02-17T20:11:25.488Z,12.97
2019-02-17T20:13:56.279Z,11.23
2019-02-17T20:16:35.483Z,9.97
2019-02-17T20:19:06.142Z,11.00
2019-02-17T20:21:37.771Z,10.77
2019-02-17T20:24:08.120Z,10.63
2019-02-17T20:26:44.877Z,10.37
2019-02-17T20:29:14.489Z,9.37
2019-02-17T20:31:44.898Z,9.90
2019-02-17T20:34:14.708Z,9.93
2019-02-17T20:36:50.344Z,8.67
2019-02-17T20:39:20.670Z,9.10
2019-02-17T20:41:50.943Z,8.80
2019-02-17T20:44:20.497Z,9.30
2019-02-17T20:46:50.835Z,9.67
2019-02-17T20:49:25.606Z,9.83
2019-02-17T20:51:55.996Z,10.20
2019-02-17T20:54:25.405Z,10.27
2019-02-17T20:57:01.890Z,10.43
2019-02-17T20:59:31.516Z,10.17
2019-02-17T21:02:06.709Z,11.17
2019-02-17T21:04:38.331Z,12.37
2019-02-17T21:07:08.605Z,10.50
2019-02-17T21:09:39.579Z,10.27
2019-02-17T21:12:08.847Z,9.20
2019-02-17T21:15:02.608Z,8.63
2019-02-17T21:17:44.105Z,9.27
2019-02-17T21:20:35.105Z,9.03
2019-02-17T21:23:07.161Z,9.53
2019-02-17T21:25:59.879Z,9.43
2019-02-17T21:28:39.825Z,9.27
2019-02-17T21:31:15.313Z,9.17
2019-02-17T21:33:45.604Z,8.67
2019-02-17T21:36:28.590Z,8.57
2019-02-17T21:38:58.873Z,8.90
2019-02-17T21:41:30.460Z,8.47
2019-02-17T21:44:06.733Z,8.93
2019-02-17T21:46:37.253Z,9.27
2019-02-17T21:52:46.696Z,8.17
2019-02-17T21:55:32.069Z,8.13
2019-02-17T21:58:13.461Z,7.97
2019-02-17T22:04:24.232Z,7.40
2019-02-17T22:07:35.038Z,7.80
2019-02-17T22:32:15.948Z,7.70
2019-02-17T22:51:22.308Z,8.83
2019-02-17T23:02:29.754Z,8.70
2019-02-17T23:27:15.013Z,8.50
2019-02-17T23:30:13.252Z,9.10
2019-02-17T23:33:00.938Z,8.73
2019-02-17T23:39:08.198Z,8.60
2019-02-17T23:45:30.065Z,8.17
2019-02-17T23:48:30.528Z,8.47
2019-02-17T23:51:45.724Z,8.33
2019-02-17T23:54:43.490Z,8.17
2019-02-17T23:57:36.374Z,8.20
